Armada Township, Michigan
Current Conditions -  °F | °C
As of 7:56 PM on Friday 24 Oct 2014 (Local Time) from KMTC Reporting Station
Broken Clouds Broken Clouds  
Wind Chill: 54°   Ceiling: 22000
Heat Index: 54°   Visibility: 10mi
Dew Point: 45°   Wind: 7mph
Humidity: 71%   Direction: 220°SW
Pressure: 29.95"   Gusts: NA
Location:  42.8463°N, 82.9201°W
Report Text: KMTC 242356Z 22006KT 10SM BKN220 12/07 A2995 RMK SLP154 T01240072 10168 20120 53003
Loading
Personal Weather Stations






























Interactive Weather Map
Tropical Storm Tracking
New forecast layout! Learn more

10-Day Weather Forecast

Advertisements
Track Severe Weather on mobile